sensor_id;sensor_type;location;lat;lon;timestamp;temperature;humidity
20162;DHT22;51382;53.180;15.414;2024-01-30T00:11:29;0.50;14.90
20162;DHT22;51382;53.180;15.414;2024-01-30T00:26:42;0.40;15.20
20162;DHT22;51382;53.180;15.414;2024-01-30T00:41:53;0.00;19.80
20162;DHT22;51382;53.180;15.414;2024-01-30T00:57:05;0.10;23.00
20162;DHT22;51382;53.180;15.414;2024-01-30T01:12:17;0.60;23.10
20162;DHT22;51382;53.180;15.414;2024-01-30T01:27:28;0.40;21.40
20162;DHT22;51382;53.180;15.414;2024-01-30T01:42:41;0.30;22.90
20162;DHT22;51382;53.180;15.414;2024-01-30T01:57:53;0.40;22.60
20162;DHT22;51382;53.180;15.414;2024-01-30T02:13:05;0.30;22.90
20162;DHT22;51382;53.180;15.414;2024-01-30T02:28:16;0.00;24.10
20162;DHT22;51382;53.180;15.414;2024-01-30T02:43:28;-0.10;28.20
20162;DHT22;51382;53.180;15.414;2024-01-30T02:58:39;-0.10;27.00
20162;DHT22;51382;53.180;15.414;2024-01-30T03:13:51;-0.10;28.60
20162;DHT22;51382;53.180;15.414;2024-01-30T03:29:02;0.00;29.50
20162;DHT22;51382;53.180;15.414;2024-01-30T03:44:14;-0.20;30.60
20162;DHT22;51382;53.180;15.414;2024-01-30T03:59:25;-0.30;39.40
20162;DHT22;51382;53.180;15.414;2024-01-30T04:14:37;-0.50;38.30
20162;DHT22;51382;53.180;15.414;2024-01-30T04:29:49;-0.30;42.30
20162;DHT22;51382;53.180;15.414;2024-01-30T04:45:00;-0.40;44.00
20162;DHT22;51382;53.180;15.414;2024-01-30T05:00:12;0.60;35.50
20162;DHT22;51382;53.180;15.414;2024-01-30T05:15:24;0.30;34.10
20162;DHT22;51382;53.180;15.414;2024-01-30T05:30:36;0.20;34.40
20162;DHT22;51382;53.180;15.414;2024-01-30T05:45:47;0.30;39.30
20162;DHT22;51382;53.180;15.414;2024-01-30T06:00:58;0.40;38.10
20162;DHT22;51382;53.180;15.414;2024-01-30T06:16:10;0.10;38.70
20162;DHT22;51382;53.180;15.414;2024-01-30T06:31:21;0.50;43.70
20162;DHT22;51382;53.180;15.414;2024-01-30T06:46:33;0.80;42.10
20162;DHT22;51382;53.180;15.414;2024-01-30T07:01:40;1.00;42.60
20162;DHT22;51382;53.180;15.414;2024-01-30T07:16:51;1.60;43.40
20162;DHT22;51382;53.180;15.414;2024-01-30T07:32:04;2.00;41.30
20162;DHT22;51382;53.180;15.414;2024-01-30T07:47:15;2.10;41.20
20162;DHT22;51382;53.180;15.414;2024-01-30T08:02:27;2.40;40.00
20162;DHT22;51382;53.180;15.414;2024-01-30T08:17:38;2.60;38.20
20162;DHT22;51382;53.180;15.414;2024-01-30T08:32:50;2.90;36.50
20162;DHT22;51382;53.180;15.414;2024-01-30T08:48:01;3.20;35.20
20162;DHT22;51382;53.180;15.414;2024-01-30T09:03:13;3.40;33.40
20162;DHT22;51382;53.180;15.414;2024-01-30T09:18:26;3.50;30.30
20162;DHT22;51382;53.180;15.414;2024-01-30T09:33:37;3.90;29.60
20162;DHT22;51382;53.180;15.414;2024-01-30T09:48:49;4.00;29.30
20162;DHT22;51382;53.180;15.414;2024-01-30T10:03:57;4.40;48.00
20162;DHT22;51382;53.180;15.414;2024-01-30T10:19:03;4.60;43.10
20162;DHT22;51382;53.180;15.414;2024-01-30T10:34:15;4.90;42.10
20162;DHT22;51382;53.180;15.414;2024-01-30T10:49:26;5.40;40.20
20162;DHT22;51382;53.180;15.414;2024-01-30T11:04:40;5.60;39.20
20162;DHT22;51382;53.180;15.414;2024-01-30T11:19:53;5.90;61.80
20162;DHT22;51382;53.180;15.414;2024-01-30T11:35:08;6.20;36.30
20162;DHT22;51382;53.180;15.414;2024-01-30T11:50:20;6.80;20.00
20162;DHT22;51382;53.180;15.414;2024-01-30T12:05:32;7.30;18.40
20162;DHT22;51382;53.180;15.414;2024-01-30T12:20:44;7.50;16.90
20162;DHT22;51382;53.180;15.414;2024-01-30T12:36:06;7.80;15.80
20162;DHT22;51382;53.180;15.414;2024-01-30T12:51:13;7.90;12.80
20162;DHT22;51382;53.180;15.414;2024-01-30T13:06:24;7.90;11.30
20162;DHT22;51382;53.180;15.414;2024-01-30T13:21:36;8.10;10.20
20162;DHT22;51382;53.180;15.414;2024-01-30T13:36:47;8.30;10.10
20162;DHT22;51382;53.180;15.414;2024-01-30T13:51:58;8.30;9.10
20162;DHT22;51382;53.180;15.414;2024-01-30T14:07:13;8.30;24.30
20162;DHT22;51382;53.180;15.414;2024-01-30T14:22:26;8.10;22.30
20162;DHT22;51382;53.180;15.414;2024-01-30T14:37:37;7.80;6.70
20162;DHT22;51382;53.180;15.414;2024-01-30T14:52:49;7.60;21.10
20162;DHT22;51382;53.180;15.414;2024-01-30T15:08:00;7.40;18.30
20162;DHT22;51382;53.180;15.414;2024-01-30T15:23:13;7.10;17.40
20162;DHT22;51382;53.180;15.414;2024-01-30T15:38:25;6.30;1.10
20162;DHT22;51382;53.180;15.414;2024-01-30T15:53:32;6.10;1.30
20162;DHT22;51382;53.180;15.414;2024-01-30T16:08:44;6.00;1.00
20162;DHT22;51382;53.180;15.414;2024-01-30T16:23:57;6.10;2.00
20162;DHT22;51382;53.180;15.414;2024-01-30T16:39:08;6.20;1.20
20162;DHT22;51382;53.180;15.414;2024-01-30T16:54:20;5.90;1.00
20162;DHT22;51382;53.180;15.414;2024-01-30T17:09:33;5.80;1.20
20162;DHT22;51382;53.180;15.414;2024-01-30T17:24:45;5.60;1.70
20162;DHT22;51382;53.180;15.414;2024-01-30T17:39:57;5.50;1.80
20162;DHT22;51382;53.180;15.414;2024-01-30T17:55:12;5.20;3.00
20162;DHT22;51382;53.180;15.414;2024-01-30T18:10:24;5.00;3.10
20162;DHT22;51382;53.180;15.414;2024-01-30T18:25:38;4.90;3.70
20162;DHT22;51382;53.180;15.414;2024-01-30T18:40:50;4.70;3.30
20162;DHT22;51382;53.180;15.414;2024-01-30T18:56:01;4.70;5.10
20162;DHT22;51382;53.180;15.414;2024-01-30T19:11:19;4.40;4.50
20162;DHT22;51382;53.180;15.414;2024-01-30T19:26:31;4.00;5.70
20162;DHT22;51382;53.180;15.414;2024-01-30T19:41:45;3.70;6.10
20162;DHT22;51382;53.180;15.414;2024-01-30T19:56:56;3.70;9.50
20162;DHT22;51382;53.180;15.414;2024-01-30T20:12:09;4.10;9.90
20162;DHT22;51382;53.180;15.414;2024-01-30T20:27:20;4.30;10.70
20162;DHT22;51382;53.180;15.414;2024-01-30T20:42:32;4.80;11.70
20162;DHT22;51382;53.180;15.414;2024-01-30T20:57:44;5.60;12.70
20162;DHT22;51382;53.180;15.414;2024-01-30T21:12:56;6.00;11.80
20162;DHT22;51382;53.180;15.414;2024-01-30T21:28:07;6.10;12.00
20162;DHT22;51382;53.180;15.414;2024-01-30T21:43:19;6.30;13.60
20162;DHT22;51382;53.180;15.414;2024-01-30T21:58:31;6.30;13.80
20162;DHT22;51382;53.180;15.414;2024-01-30T22:13:43;5.50;15.30
20162;DHT22;51382;53.180;15.414;2024-01-30T22:28:54;5.00;15.50
20162;DHT22;51382;53.180;15.414;2024-01-30T22:44:05;5.10;18.00
20162;DHT22;51382;53.180;15.414;2024-01-30T22:59:17;5.20;18.80
20162;DHT22;51382;53.180;15.414;2024-01-30T23:14:28;5.30;19.30
20162;DHT22;51382;53.180;15.414;2024-01-30T23:29:39;5.20;19.80
20162;DHT22;51382;53.180;15.414;2024-01-30T23:44:53;4.90;22.10
